AVA45 MMMX-SKBO
Flight info
| Callsign | AVA45 |
|---|---|
| Flight time | N/A |
| Altitude | 41000 |
| Route | TEVOS2A TEVOS UT113 IZT J13 TAP UL423 ILTUR UQ122 UIB UP527 DAGUR/N0488F400 DCT TOLIM TOLIM4W |
| Aircraft | A359/H-SDE2E3GHIJ3J4J5LM1ORWXY/LB1D1 |
Departure
| Time | 2026-04-30 14:35 |
|---|---|
| Airport | Mexico City Benito Juárez International Airport (MMMX) |
Arrival
| Time | N/A |
|---|---|
| Airport | El Dorado International Airport (SKBO) |
| Time | Latitude | Longitude | Altitude | Speed | Heading |
|---|---|---|---|---|---|
| 2026-04-30 14:23 | 19.43310 | -99.08468 | 7359 ft | 0 kts | 331° |
| 2026-04-30 14:25 | 19.43309 | -99.08467 | 7360 ft | 0 kts | 331° |
| 2026-04-30 14:25 | 19.43310 | -99.08468 | 7359 ft | 0 kts | 331° |
| 2026-04-30 14:28 | 19.43289 | -99.08456 | 7359 ft | 2 kts | 330° |
| 2026-04-30 14:28 | 19.43277 | -99.08449 | 7359 ft | 1 kts | 331° |
| 2026-04-30 14:28 | 19.43269 | -99.08443 | 7359 ft | 2 kts | 322° |
| 2026-04-30 14:28 | 19.43259 | -99.08432 | 7359 ft | 2 kts | 295° |
| 2026-04-30 14:29 | 19.43256 | -99.08402 | 7359 ft | 2 kts | 251° |
| 2026-04-30 14:29 | 19.43261 | -99.08390 | 7359 ft | 0 kts | 239° |
| 2026-04-30 14:31 | 19.43253 | -99.08405 | 7359 ft | 7 kts | 240° |
| 2026-04-30 14:31 | 19.43140 | -99.08608 | 7356 ft | 2 kts | 235° |
| 2026-04-30 14:31 | 19.43138 | -99.08611 | 7356 ft | 0 kts | 233° |
| 2026-04-30 14:32 | 19.43104 | -99.08633 | 7355 ft | 2 kts | 180° |
| 2026-04-30 14:32 | 19.43087 | -99.08624 | 7355 ft | 3 kts | 147° |
| 2026-04-30 14:32 | 19.43069 | -99.08611 | 7355 ft | 3 kts | 140° |
| 2026-04-30 14:33 | 19.43045 | -99.08572 | 7355 ft | 1 kts | 88° |
| 2026-04-30 14:33 | 19.43064 | -99.08520 | 7357 ft | 10 kts | 63° |
| 2026-04-30 14:33 | 19.43114 | -99.08421 | 7358 ft | 36 kts | 60° |
| 2026-04-30 14:34 | 19.43223 | -99.08223 | 7360 ft | 49 kts | 60° |
| 2026-04-30 14:34 | 19.43430 | -99.07859 | 7355 ft | 52 kts | 59° |
| 2026-04-30 14:34 | 19.43719 | -99.07345 | 7346 ft | 118 kts | 59° |
| 2026-04-30 14:34 | 19.44259 | -99.06380 | 7339 ft | 183 kts | 57° |
| 2026-04-30 14:35 | 19.45643 | -99.03915 | 8307 ft | 217 kts | 58° |